Wetterdaten: Woche 02.12.13 - 08.12.13 (KW49)
Datum Zeit Temp. A. Feuchte A. Luftdruck Regen Wind Richtung Taupunkt Windchill Windben
02.12.2013 00:00 4,2 C 71 % 1028,4 hPa 0,0 l/m 9,6 km/h N -0,6 C 1,4 C 23,7 km/h
02.12.2013 01:00 3,7 C 74 % 1028,4 hPa 0,0 l/m 13,0 km/h N -0,5 C -1,2 C 29,8 km/h
02.12.2013 02:00 4,1 C 75 % 1028,8 hPa 0,0 l/m 12,2 km/h N 0,0 C -0,3 C 26,9 km/h
02.12.2013 03:00 4,0 C 77 % 1029,1 hPa 0,0 l/m 11,5 km/h N 0,3 C -0,1 C 25,3 km/h
02.12.2013 04:00 3,8 C 79 % 1029,7 hPa 0,0 l/m 12,3 km/h N 0,5 C -0,7 C 28,2 km/h
02.12.2013 05:00 3,9 C 79 % 1030,2 hPa 0,0 l/m 9,8 km/h N 0,6 C 1,1 C 27,0 km/h
02.12.2013 06:00 4,3 C 78 % 1030,6 hPa 0,0 l/m 11,0 km/h N 0,7 C 0,6 C 26,2 km/h
02.12.2013 07:00 4,3 C 78 % 1031,9 hPa 0,0 l/m 10,3 km/h N 0,7 C 1,1 C 21,7 km/h
02.12.2013 08:00 4,3 C 78 % 1032,6 hPa 0,0 l/m 7,4 km/h N 0,8 C 3,4 C 18,1 km/h
02.12.2013 09:00 5,1 C 76 % 1033,2 hPa 0,0 l/m 8,3 km/h N 1,2 C 3,4 C 18,9 km/h
02.12.2013 10:00 6,0 C 74 % 1033,8 hPa 0,0 l/m 8,2 km/h N 1,7 C 4,5 C 20,1 km/h
02.12.2013 11:00 6,7 C 71 % 1033,8 hPa 0,0 l/m 7,8 km/h N 1,9 C 5,6 C 18,9 km/h
02.12.2013 12:00 7,3 C 68 % 1033,4 hPa 0,0 l/m 7,7 km/h N 1,8 C 6,3 C 18,9 km/h
02.12.2013 13:00 7,5 C 65 % 1033,3 hPa 0,0 l/m 6,8 km/h N 1,2 C 6,9 C 18,5 km/h
02.12.2013 14:00 7,3 C 62 % 1033,4 hPa 0,0 l/m 6,8 km/h N 0,5 C 6,8 C 18,1 km/h
02.12.2013 15:00 6,6 C 63 % 1034,2 hPa 0,0 l/m 4,3 km/h N 0,1 C 6,6 C 12,9 km/h
02.12.2013 16:00 5,2 C 67 % 1034,8 hPa 0,0 l/m 1,0 km/h N -0,6 C 5,2 C 6,4 km/h
02.12.2013 17:00 3,0 C 72 % 1034,9 hPa 0,0 l/m 0,1 km/h N -1,5 C 3,0 C 2,4 km/h
02.12.2013 18:00 1,4 C 78 % 1035,3 hPa 0,0 l/m 0,1 km/h N -2,1 C 1,4 C 1,6 km/h
02.12.2013 19:00 1,1 C 81 % 1036,0 hPa 0,0 l/m 0,7 km/h N -1,8 C 1,1 C 4,8 km/h
02.12.2013 20:00 0,8 C 80 % 1036,3 hPa 0,0 l/m 0,4 km/h N -2,2 C 0,8 C 2,4 km/h
02.12.2013 21:00 -0,2 C 80 % 1036,7 hPa 0,0 l/m 0,2 km/h N -3,2 C -0,2 C 1,6 km/h
02.12.2013 22:00 -1,5 C 82 % 1036,7 hPa 0,0 l/m 0,0 km/h N -4,2 C -1,5 C 0,8 km/h
02.12.2013 23:00 -2,1 C 84 % 1036,6 hPa 0,0 l/m 0,2 km/h N -4,5 C -2,1 C 1,6 km/h
03.12.2013 00:00 -1,9 C 85 % 1036,3 hPa 0,0 l/m 0,1 km/h N -4,1 C -1,9 C 2,4 km/h
03.12.2013 01:00 -2,7 C 84 % 1035,9 hPa 0,0 l/m 0,1 km/h N -5,0 C -2,7 C 0,8 km/h
03.12.2013 02:00 -3,3 C 85 % 1035,8 hPa 0,0 l/m 0,0 km/h N -5,4 C -3,3 C 0,0 km/h
03.12.2013 03:00 -4,0 C 85 % 1035,2 hPa 0,0 l/m 0,0 km/h N -6,1 C -4,0 C 0,0 km/h
03.12.2013 04:00 -4,7 C 86 % 1034,9 hPa 0,0 l/m 0,0 km/h N -6,6 C -4,7 C 0,0 km/h
03.12.2013 05:00 -5,1 C 86 % 1034,9 hPa 0,0 l/m 0,0 km/h N -7,1 C -5,1 C 0,0 km/h
03.12.2013 06:00 -5,6 C 86 % 1035,2 hPa 0,0 l/m 0,0 km/h N -7,6 C -5,6 C 0,0 km/h
03.12.2013 07:00 -5,9 C 86 % 1034,8 hPa 0,0 l/m 0,0 km/h N -7,9 C -5,9 C 0,8 km/h
03.12.2013 08:00 -4,5 C 85 % 1034,4 hPa 0,0 l/m 0,0 km/h N -6,5 C -4,5 C 1,2 km/h
03.12.2013 09:00 -1,3 C 84 % 1034,1 hPa 0,0 l/m 0,1 km/h N -3,6 C -1,3 C 2,0 km/h
03.12.2013 10:00 1,0 C 85 % 1033,4 hPa 0,0 l/m 1,7 km/h N -1,3 C 1,0 C 6,8 km/h
03.12.2013 11:00 3,7 C 76 % 1032,4 hPa 0,0 l/m 5,4 km/h N -0,2 C 3,6 C 16,1 km/h
03.12.2013 12:00 5,1 C 68 % 1031,8 hPa 0,0 l/m 3,7 km/h N -0,3 C 5,1 C 13,3 km/h
03.12.2013 13:00 5,2 C 67 % 1031,4 hPa 0,0 l/m 4,5 km/h N -0,5 C 5,2 C 17,3 km/h
03.12.2013 14:00 4,8 C 67 % 1031,1 hPa 0,0 l/m 3,0 km/h N -0,7 C 4,8 C 11,3 km/h
03.12.2013 15:00 4,3 C 68 % 1031,1 hPa 0,0 l/m 2,2 km/h N -1,1 C 4,3 C 10,5 km/h
03.12.2013 16:00 3,1 C 71 % 1030,7 hPa 0,0 l/m 0,2 km/h N -1,7 C 3,1 C 2,8 km/h
03.12.2013 17:00 1,1 C 73 % 1030,8 hPa 0,0 l/m 0,0 km/h N -3,1 C 1,1 C 0,0 km/h
03.12.2013 18:00 -0,8 C 78 % 1030,6 hPa 0,0 l/m 0,0 km/h N -4,1 C -0,8 C 0,0 km/h
03.12.2013 19:00 -1,7 C 82 % 1030,4 hPa 0,0 l/m 0,1 km/h N -4,4 C -1,7 C 0,8 km/h
03.12.2013 20:00 -2,3 C 83 % 1030,4 hPa 0,0 l/m 0,0 km/h N -4,7 C -2,3 C 0,0 km/h
03.12.2013 21:00 -3,0 C 84 % 1030,2 hPa 0,0 l/m 0,0 km/h N -5,3 C -3,0 C 0,0 km/h
03.12.2013 22:00 -3,5 C 85 % 1029,8 hPa 0,0 l/m 0,0 km/h N -5,7 C -3,5 C 0,0 km/h
03.12.2013 23:00 -4,0 C 86 % 1029,4 hPa 0,0 l/m 0,0 km/h N -6,0 C -4,0 C 0,0 km/h
04.12.2013 00:00 -4,2 C 86 % 1028,9 hPa 0,0 l/m 0,0 km/h N -6,2 C -4,2 C 0,0 km/h
04.12.2013 01:00 -4,5 C 86 % 1028,5 hPa 0,0 l/m 0,0 km/h N -6,5 C -4,5 C 0,0 km/h
04.12.2013 02:00 -4,8 C 86 % 1028,4 hPa 0,0 l/m 0,0 km/h N -6,8 C -4,8 C 0,0 km/h
04.12.2013 03:00 -5,3 C 86 % 1028,1 hPa 0,0 l/m 0,0 km/h N -7,2 C -5,3 C 0,0 km/h
04.12.2013 04:00 -5,6 C 86 % 1027,7 hPa 0,0 l/m 0,0 km/h N -7,6 C -5,6 C 0,0 km/h
04.12.2013 05:00 -5,8 C 86 % 1027,4 hPa 0,0 l/m 0,0 km/h N -7,7 C -5,8 C 0,0 km/h
04.12.2013 06:00 -5,3 C 85 % 1027,3 hPa 0,0 l/m 0,0 km/h N -7,4 C -5,3 C 0,0 km/h
04.12.2013 07:00 -4,0 C 84 % 1027,1 hPa 0,0 l/m 0,0 km/h N -6,3 C -4,0 C 0,4 km/h
04.12.2013 08:00 -3,3 C 84 % 1027,2 hPa 0,0 l/m 0,0 km/h N -5,6 C -3,3 C 1,2 km/h
04.12.2013 09:00 -2,5 C 84 % 1026,9 hPa 0,0 l/m 0,0 km/h N -4,9 C -2,5 C 0,8 km/h
04.12.2013 10:00 -2,2 C 84 % 1026,7 hPa 0,0 l/m 0,2 km/h N -4,5 C -2,2 C 2,8 km/h
04.12.2013 11:00 -1,8 C 83 % 1025,9 hPa 0,0 l/m 0,4 km/h N -4,2 C -1,8 C 4,0 km/h
04.12.2013 12:00 -1,3 C 83 % 1025,0 hPa 0,0 l/m 1,6 km/h N -3,9 C -1,3 C 5,6 km/h
04.12.2013 13:00 -0,9 C 83 % 1024,3 hPa 0,0 l/m 0,6 km/h N -3,3 C -0,9 C 5,2 km/h
04.12.2013 14:00 -0,9 C 84 % 1023,5 hPa 0,0 l/m 1,3 km/h N -3,2 C -0,9 C 6,4 km/h
04.12.2013 15:00 -1,0 C 84 % 1023,2 hPa 0,0 l/m 1,0 km/h N -3,4 C -1,0 C 5,2 km/h
04.12.2013 16:00 -1,6 C 85 % 1023,2 hPa 0,0 l/m 0,1 km/h N -3,9 C -1,6 C 1,2 km/h
04.12.2013 17:00 -2,1 C 85 % 1023,0 hPa 0,0 l/m 0,6 km/h N -4,4 C -2,1 C 5,2 km/h
04.12.2013 18:00 2,6 C 79 % 1023,3 hPa 0,0 l/m 8,9 km/h N -0,8 C -0,1 C 31,4 km/h
04.12.2013 19:00 3,5 C 71 % 1023,6 hPa 0,0 l/m 10,4 km/h N -1,3 C -0,1 C 33,8 km/h
04.12.2013 20:00 2,7 C 75 % 1023,4 hPa 0,0 l/m 18,0 km/h N -1,3 C -5,1 C 44,6 km/h
04.12.2013 21:00 2,9 C 76 % 1022,9 hPa 0,0 l/m 23,7 km/h N -0,9 C -7,3 C 55,5 km/h
04.12.2013 22:00 3,3 C 74 % 1023,1 hPa 0,0 l/m 23,3 km/h N -0,9 C -6,7 C 54,3 km/h
04.12.2013 23:00 3,3 C 75 % 1023,9 hPa 0,0 l/m 23,0 km/h N -0,7 C -6,5 C 51,5 km/h
05.12.2013 00:00 3,4 C 75 % 1024,2 hPa 0,0 l/m 21,2 km/h N -0,6 C -5,6 C 49,1 km/h
05.12.2013 01:00 3,8 C 73 % 1024,1 hPa 0,0 l/m 17,4 km/h N -0,7 C -3,6 C 42,6 km/h
05.12.2013 02:00 4,1 C 71 % 1024,9 hPa 0,0 l/m 18,3 km/h N -0,7 C -3,6 C 43,5 km/h
05.12.2013 03:00 4,2 C 72 % 1025,3 hPa 0,0 l/m 18,0 km/h N -0,5 C -3,3 C 39,8 km/h
05.12.2013 04:00 4,3 C 72 % 1025,6 hPa 0,0 l/m 18,4 km/h N -0,4 C -3,4 C 36,2 km/h
05.12.2013 05:00 4,4 C 72 % 1026,1 hPa 0,0 l/m 17,2 km/h N -0,3 C -2,7 C 35,0 km/h
05.12.2013 06:00 3,9 C 76 % 1026,6 hPa 0,0 l/m 12,9 km/h N 0,0 C -1,1 C 28,2 km/h
05.12.2013 07:00 3,3 C 81 % 1027,2 hPa 0,0 l/m 8,9 km/h N 0,4 C 1,1 C 23,3 km/h
05.12.2013 08:00 3,6 C 80 % 1027,3 hPa 0,0 l/m 6,5 km/h N 0,4 C 3,1 C 18,1 km/h
05.12.2013 09:00 3,8 C 78 % 1027,3 hPa 0,0 l/m 5,8 km/h N 0,4 C 3,8 C 15,7 km/h
05.12.2013 10:00 4,1 C 78 % 1026,8 hPa 0,0 l/m 4,5 km/h N 0,6 C 4,0 C 12,5 km/h
05.12.2013 11:00 4,6 C 76 % 1025,7 hPa 0,0 l/m 5,9 km/h N 0,8 C 4,4 C 14,1 km/h
05.12.2013 12:00 5,7 C 73 % 1024,4 hPa 0,0 l/m 7,4 km/h N 1,1 C 4,8 C 21,3 km/h
05.12.2013 13:00 6,4 C 70 % 1022,9 hPa 0,0 l/m 6,6 km/h N 1,4 C 5,6 C 18,9 km/h
05.12.2013 14:00 6,7 C 68 % 1021,5 hPa 0,0 l/m 3,0 km/h N 1,2 C 6,7 C 10,1 km/h
05.12.2013 15:00 6,5 C 70 % 1020,2 hPa 0,0 l/m 3,5 km/h N 1,4 C 6,5 C 12,1 km/h
05.12.2013 16:00 5,3 C 70 % 1018,9 hPa 0,0 l/m 2,6 km/h N 0,3 C 5,3 C 8,9 km/h
05.12.2013 17:00 3,7 C 71 % 1017,4 hPa 0,0 l/m 0,2 km/h N -1,1 C 3,7 C 1,6 km/h
05.12.2013 18:00 2,5 C 77 % 1015,8 hPa 0,0 l/m 0,5 km/h N -1,2 C 2,5 C 3,6 km/h
05.12.2013 19:00 1,6 C 81 % 1014,6 hPa 0,0 l/m 0,1 km/h N -1,4 C 1,6 C 2,4 km/h
05.12.2013 20:00 1,3 C 83 % 1013,3 hPa 0,0 l/m 0,1 km/h N -1,3 C 1,3 C 2,0 km/h
05.12.2013 21:00 1,7 C 83 % 1011,5 hPa 0,0 l/m 0,4 km/h N -0,9 C 1,7 C 4,0 km/h
05.12.2013 22:00 3,9 C 79 % 1010,7 hPa 0,0 l/m 3,5 km/h N 0,5 C 3,9 C 13,3 km/h
05.12.2013 23:00 6,8 C 67 % 1010,0 hPa 0,0 l/m 9,9 km/h N 1,0 C 4,3 C 33,4 km/h
06.12.2013 00:00 5,7 C 77 % 1008,9 hPa 0,0 l/m 11,8 km/h N 1,9 C 1,7 C 35,0 km/h
06.12.2013 01:00 5,9 C 75 % 1008,2 hPa 0,0 l/m 12,7 km/h N 1,9 C 1,5 C 40,2 km/h
06.12.2013 02:00 6,7 C 73 % 1007,2 hPa 0,0 l/m 13,8 km/h N 2,1 C 1,8 C 39,5 km/h
06.12.2013 03:00 7,4 C 66 % 1006,4 hPa 0,3 l/m 21,7 km/h N 1,5 C -0,5 C 51,1 km/h
06.12.2013 04:00 3,9 C 76 % 1009,2 hPa 1,6 l/m 20,9 km/h N 0,0 C -4,7 C 48,3 km/h
06.12.2013 05:00 1,9 C 85 % 1010,4 hPa 1,6 l/m 13,6 km/h N -0,3 C -3,8 C 27,8 km/h
06.12.2013 06:00 3,2 C 81 % 1010,7 hPa 0,0 l/m 10,0 km/h N 0,3 C 0,3 C 27,3 km/h
06.12.2013 07:00 3,3 C 76 % 1011,4 hPa 0,0 l/m 9,8 km/h N -0,5 C 0,6 C 26,1 km/h
06.12.2013 08:00 3,2 C 73 % 1012,4 hPa 0,0 l/m 9,4 km/h N -1,2 C 0,7 C 28,1 km/h
06.12.2013 09:00 3,8 C 69 % 1012,9 hPa 0,0 l/m 10,7 km/h N -1,5 C 0,2 C 29,8 km/h
06.12.2013 10:00 4,0 C 66 % 1012,9 hPa 0,0 l/m 15,4 km/h N -1,9 C -2,3 C 32,6 km/h
06.12.2013 11:00 4,1 C 66 % 1012,5 hPa 0,0 l/m 13,0 km/h N -1,7 C -0,8 C 36,6 km/h
06.12.2013 12:00 4,0 C 65 % 1012,3 hPa 0,0 l/m 14,1 km/h N -1,9 C -1,6 C 33,8 km/h
06.12.2013 13:00 3,6 C 67 % 1012,1 hPa 0,0 l/m 12,3 km/h N -1,9 C -1,0 C 33,8 km/h
06.12.2013 14:00 3,9 C 63 % 1012,2 hPa 0,0 l/m 13,6 km/h N -2,5 C -1,5 C 31,4 km/h
06.12.2013 15:00 2,6 C 74 % 1012,7 hPa 0,3 l/m 13,1 km/h N -1,6 C -2,6 C 36,6 km/h
06.12.2013 16:00 3,1 C 68 % 1013,1 hPa 0,0 l/m 14,4 km/h N -2,2 C -2,9 C 34,6 km/h
06.12.2013 17:00 2,7 C 65 % 1013,5 hPa 0,0 l/m 14,4 km/h N -3,2 C -3,3 C 34,6 km/h
06.12.2013 18:00 2,6 C 69 % 1013,6 hPa 0,0 l/m 17,7 km/h N -2,6 C -5,3 C 42,3 km/h
06.12.2013 19:00 2,3 C 71 % 1013,5 hPa 0,0 l/m 16,7 km/h N -2,4 C -5,0 C 45,0 km/h
06.12.2013 20:00 2,9 C 67 % 1013,7 hPa 0,0 l/m 20,9 km/h N -2,7 C -6,2 C 48,3 km/h
06.12.2013 21:00 2,7 C 69 % 1014,1 hPa 0,0 l/m 17,8 km/h N -2,5 C -5,1 C 47,1 km/h
06.12.2013 22:00 2,1 C 73 % 1014,3 hPa 0,0 l/m 22,8 km/h N -2,2 C -8,0 C 55,5 km/h
06.12.2013 23:00 2,4 C 69 % 1014,2 hPa 0,0 l/m 24,6 km/h N -2,7 C -8,3 C 53,1 km/h
07.12.2013 00:00 2,4 C 68 % 1014,4 hPa 0,0 l/m 21,6 km/h N -2,9 C -7,2 C 53,1 km/h
07.12.2013 01:00 2,3 C 69 % 1014,8 hPa 0,0 l/m 23,3 km/h N -2,7 C -8,0 C 49,9 km/h
07.12.2013 02:00 2,3 C 69 % 1015,0 hPa 0,0 l/m 21,2 km/h N -2,8 C -7,2 C 51,5 km/h
07.12.2013 03:00 2,2 C 70 % 1015,8 hPa 0,0 l/m 19,9 km/h N -2,7 C -6,7 C 43,1 km/h
07.12.2013 04:00 1,8 C 73 % 1016,7 hPa 0,0 l/m 19,5 km/h N -2,5 C -7,1 C 44,7 km/h
07.12.2013 05:00 1,7 C 67 % 1017,6 hPa 0,0 l/m 22,3 km/h N -3,8 C -8,3 C 45,5 km/h
07.12.2013 06:00 1,8 C 60 % 1018,7 hPa 0,0 l/m 20,8 km/h N -5,0 C -7,6 C 43,9 km/h
07.12.2013 07:00 1,9 C 58 % 1019,3 hPa 0,0 l/m 20,2 km/h N -5,6 C -7,2 C 42,3 km/h
07.12.2013 08:00 2,1 C 58 % 1020,1 hPa 0,0 l/m 20,6 km/h N -5,3 C -7,1 C 41,0 km/h
07.12.2013 09:00 2,8 C 56 % 1021,1 hPa 0,0 l/m 20,7 km/h N -5,2 C -6,3 C 45,5 km/h
07.12.2013 10:00 3,2 C 54 % 1021,8 hPa 0,0 l/m 20,3 km/h N -5,1 C -5,6 C 44,7 km/h
07.12.2013 11:00 3,8 C 52 % 1022,0 hPa 0,0 l/m 19,9 km/h N -5,3 C -4,7 C 40,2 km/h
07.12.2013 12:00 3,6 C 63 % 1022,3 hPa 0,0 l/m 18,2 km/h N -2,9 C -4,1 C 41,0 km/h
07.12.2013 13:00 1,7 C 80 % 1022,5 hPa 0,3 l/m 17,1 km/h N -1,4 C -6,0 C 37,8 km/h
07.12.2013 14:00 2,9 C 72 % 1022,2 hPa 0,3 l/m 18,6 km/h N -1,7 C -5,2 C 39,8 km/h
07.12.2013 15:00 3,0 C 69 % 1022,0 hPa 0,0 l/m 22,0 km/h N -2,2 C -6,6 C 46,3 km/h
07.12.2013 16:00 3,0 C 67 % 1022,2 hPa 0,0 l/m 17,0 km/h N -2,5 C -4,3 C 41,8 km/h
07.12.2013 17:00 3,2 C 66 % 1022,9 hPa 0,0 l/m 13,4 km/h N -2,6 C -2,1 C 35,0 km/h
07.12.2013 18:00 3,2 C 67 % 1023,5 hPa 0,0 l/m 11,1 km/h N -2,3 C -0,7 C 30,2 km/h
07.12.2013 19:00 3,2 C 70 % 1023,5 hPa 0,0 l/m 12,3 km/h N -1,7 C -1,4 C 33,0 km/h
07.12.2013 20:00 3,3 C 73 % 1023,3 hPa 0,0 l/m 12,1 km/h N -1,0 C -1,2 C 30,2 km/h
07.12.2013 21:00 3,6 C 73 % 1023,3 hPa 0,0 l/m 7,9 km/h N -0,8 C 1,9 C 26,1 km/h
07.12.2013 22:00 3,8 C 73 % 1023,3 hPa 0,0 l/m 3,7 km/h N -0,6 C 3,8 C 14,5 km/h
07.12.2013 23:00 4,0 C 74 % 1023,7 hPa 0,0 l/m 1,8 km/h N -0,3 C 4,0 C 8,8 km/h
08.12.2013 00:00 4,1 C 74 % 1023,6 hPa 0,0 l/m 6,2 km/h N -0,1 C 3,8 C 16,5 km/h
08.12.2013 01:00 4,1 C 75 % 1023,5 hPa 0,0 l/m 7,8 km/h N 0,0 C 2,9 C 24,1 km/h
08.12.2013 02:00 4,0 C 76 % 1023,8 hPa 0,0 l/m 8,5 km/h N 0,2 C 2,1 C 23,7 km/h
08.12.2013 03:00 4,3 C 76 % 1023,6 hPa 0,0 l/m 8,9 km/h N 0,5 C 2,2 C 24,1 km/h
08.12.2013 04:00 4,7 C 76 % 1023,6 hPa 0,0 l/m 9,9 km/h N 0,8 C 1,8 C 27,0 km/h
08.12.2013 05:00 4,8 C 77 % 1023,8 hPa 0,0 l/m 11,2 km/h N 1,1 C 1,1 C 27,8 km/h
08.12.2013 06:00 5,0 C 77 % 1024,3 hPa 0,0 l/m 12,7 km/h N 1,2 C 0,3 C 31,8 km/h
08.12.2013 07:00 5,1 C 76 % 1025,0 hPa 0,0 l/m 10,2 km/h N 1,2 C 2,1 C 27,8 km/h
08.12.2013 08:00 4,9 C 78 % 1025,6 hPa 0,3 l/m 9,1 km/h N 1,5 C 2,7 C 25,8 km/h
08.12.2013 09:00 5,3 C 78 % 1026,2 hPa 0,0 l/m 10,1 km/h N 1,7 C 2,3 C 25,7 km/h
08.12.2013 10:00 5,8 C 75 % 1026,7 hPa 0,0 l/m 11,3 km/h N 1,7 C 2,1 C 26,5 km/h
08.12.2013 11:00 6,6 C 72 % 1026,4 hPa 0,0 l/m 11,5 km/h N 1,8 C 2,9 C 27,0 km/h
08.12.2013 12:00 7,0 C 69 % 1026,7 hPa 0,0 l/m 11,5 km/h N 1,6 C 3,5 C 27,4 km/h
08.12.2013 13:00 6,8 C 70 % 1026,9 hPa 0,0 l/m 9,1 km/h N 1,6 C 4,7 C 24,1 km/h
08.12.2013 14:00 6,6 C 70 % 1026,7 hPa 0,0 l/m 9,6 km/h N 1,5 C 4,2 C 24,5 km/h
08.12.2013 15:00 6,3 C 70 % 1026,7 hPa 0,0 l/m 9,3 km/h N 1,1 C 3,9 C 24,9 km/h
08.12.2013 16:00 5,7 C 72 % 1026,8 hPa 0,0 l/m 7,7 km/h N 1,0 C 4,6 C 21,7 km/h
08.12.2013 17:00 5,5 C 73 % 1026,9 hPa 0,0 l/m 7,0 km/h N 1,0 C 4,8 C 22,9 km/h
08.12.2013 18:00 5,7 C 72 % 1027,1 hPa 0,0 l/m 6,8 km/h N 1,0 C 5,3 C 23,7 km/h
08.12.2013 19:00 5,8 C 70 % 1027,0 hPa 0,0 l/m 6,0 km/h N 0,8 C 5,7 C 20,1 km/h
08.12.2013 20:00 5,9 C 70 % 1026,8 hPa 0,0 l/m 4,1 km/h N 0,9 C 5,9 C 15,3 km/h
08.12.2013 21:00 6,6 C 68 % 1026,5 hPa 0,0 l/m 6,6 km/h N 1,1 C 6,3 C 19,7 km/h
08.12.2013 22:00 6,4 C 68 % 1026,7 hPa 0,0 l/m 9,4 km/h N 0,9 C 4,1 C 27,0 km/h
08.12.2013 23:00 6,1 C 69 % 1026,6 hPa 0,0 l/m 7,8 km/h N 0,8 C 4,9 C 24,5 km/h
Min-Datum _ 03.12.13 07.12.13 06.12.13 - 02.12.13 - 03.12.13 07.12.13 02.12.13
_ Min-Zeit 07:30 11:15 03:15 - 17:30 - 07:30 05:30 18:15
Minimum _ -6,1 C 50 % 1006,0 hPa - 0,0 km/h - -8,0 C -9,3 C 0,0 km/h
Max-Datum _ 06.12.13 03.12.13 02.12.13 06.12.13 06.12.13 - 06.12.13 02.12.13 06.12.13
_ Max-Zeit 04:00 04:00 21:45 04:15 04:00 - 02:15 14:00 22:15
Maximum _ 7,8 C 86 % 1036,8 hPa 1,6 l/m 27,2 km/h
N
- 2,2 C 7,4 C 64,4 km/h
N
Durchschnitt _ 2,5 C 75 % 1024,4 hPa #4,4 l/m 8,7 km/h N -1,7 C -0,5 C 22,0 km/h